Time;durP1;ratioP1;P1;durP2;ratioP2;P2;SDS_P1;SDS_P2;PMS_P1;PMS_P2;Temp;Humidity;BMP_temperature;BMP_pressure;BME280_temperature;BME280_humidity;BME280_pressure;Samples;Min_cycle;Max_cycle;Signal;HPM_P1;HPM_P2
2021/10/29 00:01:29;;;;;;;;;;;19.70;57.50;;;;;;5010752;28;20524;-48
2021/10/29 00:03:57;;;;;;;;;;;19.70;57.50;;;;;;5012494;28;19925;-49
2021/10/29 00:06:24;;;;;;;;;;;19.70;57.50;;;;;;5012996;28;19925;-52
2021/10/29 00:08:54;;;;;;;;;;;19.70;57.50;;;;;;5006214;28;20378;-50
2021/10/29 00:11:21;;;;;;;;;;;19.70;57.50;;;;;;4996696;28;20341;-49
2021/10/29 00:13:48;;;;;;;;;;;19.70;57.50;;;;;;4995136;28;19926;-48
2021/10/29 00:16:15;;;;;;;;;;;19.70;57.50;;;;;;4999641;28;19926;-48
2021/10/29 00:18:42;;;;;;;;;;;19.70;57.50;;;;;;5011152;28;19961;-52
2021/10/29 00:21:09;;;;;;;;;;;19.70;57.50;;;;;;5012328;28;19930;-52
2021/10/29 00:23:37;;;;;;;;;;;19.70;57.50;;;;;;5012156;28;20448;-54
2021/10/29 00:26:04;;;;;;;;;;;19.70;57.50;;;;;;5011105;28;19930;-49
2021/10/29 00:28:31;;;;;;;;;;;19.70;57.50;;;;;;5012304;28;19925;-53
2021/10/29 00:30:58;;;;;;;;;;;19.70;57.50;;;;;;5011429;28;19972;-53
2021/10/29 00:33:26;;;;;;;;;;;19.70;57.50;;;;;;5011332;28;19925;-51
2021/10/29 00:35:53;;;;;;;;;;;19.70;57.50;;;;;;5011511;28;19932;-50
2021/10/29 00:38:20;;;;;;;;;;;19.70;57.50;;;;;;4996536;28;19933;-53
2021/10/29 00:40:48;;;;;;;;;;;19.70;57.50;;;;;;4996080;28;19926;-49
2021/10/29 00:43:15;;;;;;;;;;;19.70;57.50;;;;;;5009871;28;19925;-54
2021/10/29 00:45:42;;;;;;;;;;;19.70;57.50;;;;;;5012103;28;19925;-52
2021/10/29 00:48:12;;;;;;;;;;;19.70;57.50;;;;;;5012435;28;19925;-55
2021/10/29 00:50:40;;;;;;;;;;;19.70;57.50;;;;;;5001213;28;19968;-50
2021/10/29 00:53:08;;;;;;;;;;;19.70;57.50;;;;;;4999953;28;19969;-53
2021/10/29 00:55:35;;;;;;;;;;;19.70;57.50;;;;;;5000241;28;19926;-54
2021/10/29 00:58:03;;;;;;;;;;;19.70;57.50;;;;;;5006578;28;20305;-53
2021/10/29 01:00:30;;;;;;;;;;;19.70;57.50;;;;;;5008176;28;19936;-54
2021/10/29 01:02:58;;;;;;;;;;;19.70;57.50;;;;;;5016162;28;19933;-55
2021/10/29 01:05:25;;;;;;;;;;;19.70;57.50;;;;;;5015365;28;20440;-52
2021/10/29 01:07:53;;;;;;;;;;;19.70;57.50;;;;;;5009810;28;19933;-52
2021/10/29 01:10:21;;;;;;;;;;;19.70;57.50;;;;;;4999553;28;19929;-54
2021/10/29 01:12:48;;;;;;;;;;;19.70;57.50;;;;;;5002421;28;19933;-52
2021/10/29 01:15:15;;;;;;;;;;;19.70;57.50;;;;;;5015593;28;19925;-52
2021/10/29 01:17:42;;;;;;;;;;;19.70;57.50;;;;;;5014300;28;20362;-51
2021/10/29 01:20:10;;;;;;;;;;;19.70;57.50;;;;;;5014109;28;19925;-54
2021/10/29 01:22:37;;;;;;;;;;;19.70;57.50;;;;;;5014333;28;19925;-47
2021/10/29 01:25:05;;;;;;;;;;;19.70;57.50;;;;;;5015220;28;19944;-55
2021/10/29 01:27:32;;;;;;;;;;;19.70;57.50;;;;;;5015102;28;19925;-50
2021/10/29 01:30:00;;;;;;;;;;;19.70;57.50;;;;;;5014612;28;19947;-54
2021/10/29 01:32:27;;;;;;;;;;;19.70;57.50;;;;;;4996842;28;19926;-53
2021/10/29 01:34:54;;;;;;;;;;;19.70;57.50;;;;;;5015196;28;19933;-51
2021/10/29 01:37:22;;;;;;;;;;;19.70;57.50;;;;;;5013993;28;19925;-53
2021/10/29 01:39:49;;;;;;;;;;;19.70;57.50;;;;;;5014763;28;20016;-52
2021/10/29 01:42:16;;;;;;;;;;;19.70;57.50;;;;;;5015180;28;19930;-53
2021/10/29 01:44:44;;;;;;;;;;;19.70;57.50;;;;;;5014656;28;19930;-54
2021/10/29 01:47:11;;;;;;;;;;;19.70;57.50;;;;;;5002544;28;20016;-54
2021/10/29 01:49:39;;;;;;;;;;;19.70;57.50;;;;;;4998971;28;19926;-50
2021/10/29 01:52:07;;;;;;;;;;;19.70;57.50;;;;;;5001301;28;19925;-50
2021/10/29 01:54:34;;;;;;;;;;;19.70;57.50;;;;;;5004935;28;19948;-54
2021/10/29 01:57:01;;;;;;;;;;;19.70;57.50;;;;;;4998721;28;19933;-54
2021/10/29 01:59:28;;;;;;;;;;;19.70;57.50;;;;;;5006919;28;19925;-53
2021/10/29 02:01:55;;;;;;;;;;;19.70;57.50;;;;;;5006195;28;19992;-53
2021/10/29 02:04:23;;;;;;;;;;;19.70;57.50;;;;;;5004326;28;19933;-51
2021/10/29 02:06:50;;;;;;;;;;;19.70;57.50;;;;;;5014669;28;20013;-49
2021/10/29 02:09:17;;;;;;;;;;;19.70;57.50;;;;;;5013255;28;19929;-49
2021/10/29 02:11:44;;;;;;;;;;;19.70;57.50;;;;;;5014311;28;19926;-51
2021/10/29 02:14:12;;;;;;;;;;;19.70;57.50;;;;;;5012233;28;19932;-50
2021/10/29 02:16:40;;;;;;;;;;;19.70;57.50;;;;;;5016427;28;19925;-50
2021/10/29 02:19:07;;;;;;;;;;;19.70;57.50;;;;;;4998917;28;19940;-48
2021/10/29 02:21:34;;;;;;;;;;;19.70;57.50;;;;;;5014435;28;19929;-50
2021/10/29 02:24:02;;;;;;;;;;;19.70;57.50;;;;;;5014356;28;20301;-54
2021/10/29 02:26:29;;;;;;;;;;;19.70;57.50;;;;;;4995763;28;19966;-53
2021/10/29 02:28:56;;;;;;;;;;;19.70;57.50;;;;;;5013350;28;19932;-53
2021/10/29 02:31:25;;;;;;;;;;;19.70;57.50;;;;;;5014009;28;19933;-54
2021/10/29 02:33:53;;;;;;;;;;;19.70;57.50;;;;;;4996595;28;19933;-55
2021/10/29 02:36:22;;;;;;;;;;;19.70;57.50;;;;;;4997791;28;19925;-51
2021/10/29 02:38:55;;;;;;;;;;;19.70;57.50;;;;;;4997651;28;19976;-53
2021/10/29 02:41:22;;;;;;;;;;;19.70;57.50;;;;;;4997707;28;19976;-52
2021/10/29 02:43:49;;;;;;;;;;;19.70;57.50;;;;;;5011051;28;19930;-50
2021/10/29 02:46:16;;;;;;;;;;;19.70;57.50;;;;;;5000836;28;19932;-53
2021/10/29 02:48:43;;;;;;;;;;;19.70;57.50;;;;;;5009251;28;19943;-50
2021/10/29 02:51:11;;;;;;;;;;;19.70;57.50;;;;;;5002972;28;19929;-51
2021/10/29 02:53:38;;;;;;;;;;;19.70;57.50;;;;;;4997361;28;19926;-52
2021/10/29 02:56:07;;;;;;;;;;;19.70;57.50;;;;;;5006890;28;19968;-53
2021/10/29 02:58:34;;;;;;;;;;;19.70;57.50;;;;;;5005026;28;19926;-49
2021/10/29 03:01:02;;;;;;;;;;;19.70;57.50;;;;;;4997172;28;19933;-52
2021/10/29 03:03:30;;;;;;;;;;;19.70;57.50;;;;;;5003960;28;20008;-53
2021/10/29 03:05:57;;;;;;;;;;;19.70;57.50;;;;;;5013153;28;19925;-53
2021/10/29 03:08:25;;;;;;;;;;;19.70;57.50;;;;;;5013293;28;20405;-52
2021/10/29 03:10:52;;;;;;;;;;;19.70;57.50;;;;;;5012130;28;20360;-52
2021/10/29 03:13:20;;;;;;;;;;;19.70;57.50;;;;;;5011281;28;19925;-55
2021/10/29 03:15:49;;;;;;;;;;;19.70;57.50;;;;;;5013084;28;19926;-53
2021/10/29 03:18:17;;;;;;;;;;;19.70;57.50;;;;;;5011613;28;19976;-53
2021/10/29 03:20:44;;;;;;;;;;;19.60;57.40;;;;;;4996289;28;19926;-55
2021/10/29 03:23:13;;;;;;;;;;;19.60;57.40;;;;;;5013060;28;19932;-54
2021/10/29 03:25:41;;;;;;;;;;;19.70;57.50;;;;;;4995925;28;19926;-52
2021/10/29 03:28:08;;;;;;;;;;;19.70;57.50;;;;;;5012991;28;19926;-48
2021/10/29 03:30:36;;;;;;;;;;;19.70;57.50;;;;;;5012305;28;19940;-53
2021/10/29 03:33:03;;;;;;;;;;;19.70;57.50;;;;;;4995957;28;19926;-49
2021/10/29 03:35:31;;;;;;;;;;;19.70;57.50;;;;;;5013072;28;20405;-49
2021/10/29 03:40:50;;;;;;;;;;;19.70;57.50;;;;;;4996878;28;19926;-52
2021/10/29 03:46:23;;;;;;;;;;;19.70;57.50;;;;;;5007784;28;20344;-51
2021/10/29 03:51:24;;;;;;;;;;;19.70;57.50;;;;;;4995873;28;19926;-50
2021/10/29 03:54:36;;;;;;;;;;;19.70;57.50;;;;;;5012493;28;19933;-48
2021/10/29 03:56:42;;;;;;;;;;;19.60;57.40;;;;;;4989287;28;19926;-53
2021/10/29 03:59:10;;;;;;;;;;;19.60;57.40;;;;;;4995889;28;20305;-54
2021/10/29 04:01:37;;;;;;;;;;;19.60;57.40;;;;;;5012016;28;19933;-50
2021/10/29 04:04:05;;;;;;;;;;;19.60;57.40;;;;;;5011931;28;19980;-48
2021/10/29 04:06:32;;;;;;;;;;;19.60;57.50;;;;;;5011459;28;19925;-53
2021/10/29 04:09:00;;;;;;;;;;;19.60;57.40;;;;;;5011296;28;19926;-52
2021/10/29 04:11:28;;;;;;;;;;;19.60;57.40;;;;;;5011465;28;19925;-49
2021/10/29 04:13:56;;;;;;;;;;;19.60;57.40;;;;;;5012457;28;19933;-52
2021/10/29 04:16:24;;;;;;;;;;;19.60;57.40;;;;;;5012491;28;20377;-53
2021/10/29 04:18:51;;;;;;;;;;;19.60;57.40;;;;;;4998457;28;19936;-51
2021/10/29 04:21:18;;;;;;;;;;;19.60;57.40;;;;;;5009421;28;19932;-53
2021/10/29 04:23:45;;;;;;;;;;;19.60;57.40;;;;;;5012441;28;19930;-54
2021/10/29 04:26:12;;;;;;;;;;;19.60;57.40;;;;;;5004364;28;19933;-54
2021/10/29 04:28:42;;;;;;;;;;;19.60;57.40;;;;;;5010374;28;19932;-51
2021/10/29 04:31:18;;;;;;;;;;;19.60;57.40;;;;;;5016082;28;19925;-51
2021/10/29 04:33:45;;;;;;;;;;;19.60;57.40;;;;;;5006444;28;20378;-53
2021/10/29 04:36:12;;;;;;;;;;;19.60;57.40;;;;;;5009102;28;19926;-53
2021/10/29 04:38:39;;;;;;;;;;;19.60;57.40;;;;;;5007896;28;19926;-54
2021/10/29 04:41:07;;;;;;;;;;;19.60;57.40;;;;;;5004762;28;20008;-53
2021/10/29 04:43:34;;;;;;;;;;;19.60;57.40;;;;;;5016112;28;19925;-51
2021/10/29 04:46:01;;;;;;;;;;;19.60;57.40;;;;;;5010520;28;20318;-52
2021/10/29 04:48:28;;;;;;;;;;;19.60;57.40;;;;;;5000543;28;19926;-53
2021/10/29 04:50:56;;;;;;;;;;;19.60;57.40;;;;;;5003154;28;19925;-51
2021/10/29 04:53:25;;;;;;;;;;;19.60;57.40;;;;;;5014433;28;20407;-52
2021/10/29 04:55:52;;;;;;;;;;;19.60;57.40;;;;;;5013420;28;19997;-50
2021/10/29 04:58:19;;;;;;;;;;;19.60;57.40;;;;;;4999433;28;19933;-53
2021/10/29 05:00:48;;;;;;;;;;;19.60;57.40;;;;;;5000031;28;19948;-53
2021/10/29 05:03:17;;;;;;;;;;;19.60;57.40;;;;;;5014012;28;20224;-48
2021/10/29 05:05:45;;;;;;;;;;;19.60;57.40;;;;;;4998624;28;20005;-51
2021/10/29 05:08:15;;;;;;;;;;;19.60;57.40;;;;;;5015026;28;19973;-53
2021/10/29 05:10:42;;;;;;;;;;;19.60;57.40;;;;;;4998286;28;19926;-52
2021/10/29 05:13:09;;;;;;;;;;;19.60;57.40;;;;;;4997990;28;19925;-54
2021/10/29 05:15:36;;;;;;;;;;;19.60;57.40;;;;;;5015732;28;19926;-52
2021/10/29 05:18:03;;;;;;;;;;;19.60;57.40;;;;;;5004116;28;19937;-54
2021/10/29 05:20:30;;;;;;;;;;;19.60;57.40;;;;;;5013213;28;20373;-50
2021/10/29 05:22:57;;;;;;;;;;;19.60;57.40;;;;;;5001789;28;19925;-51
2021/10/29 05:25:24;;;;;;;;;;;19.60;57.50;;;;;;4999333;28;19933;-53
2021/10/29 05:27:51;;;;;;;;;;;19.60;57.40;;;;;;5009323;28;20004;-52
2021/10/29 05:30:18;;;;;;;;;;;19.60;57.40;;;;;;5004539;28;19926;-54
2021/10/29 05:32:46;;;;;;;;;;;19.60;57.40;;;;;;5008885;28;19930;-54
2021/10/29 05:35:15;;;;;;;;;;;19.60;57.40;;;;;;5005898;28;19933;-54
2021/10/29 05:37:51;;;;;;;;;;;19.60;57.40;;;;;;5006920;28;20393;-54
2021/10/29 05:40:19;;;;;;;;;;;19.60;57.40;;;;;;5015099;28;19925;-54
2021/10/29 05:42:46;;;;;;;;;;;19.60;57.40;;;;;;5007008;28;19930;-49
2021/10/29 05:45:13;;;;;;;;;;;19.60;57.40;;;;;;5005927;28;19926;-51
2021/10/29 05:47:40;;;;;;;;;;;19.60;57.40;;;;;;5014775;28;19932;-49
2021/10/29 05:50:11;;;;;;;;;;;19.60;57.40;;;;;;5013626;28;19952;-53
2021/10/29 05:52:41;;;;;;;;;;;19.60;57.40;;;;;;5010021;28;19932;-53
2021/10/29 05:55:19;;;;;;;;;;;19.60;57.40;;;;;;5002226;28;19933;-50
2021/10/29 05:57:48;;;;;;;;;;;19.60;57.40;;;;;;5014652;28;19937;-54
2021/10/29 06:00:20;;;;;;;;;;;19.60;57.40;;;;;;5014241;28;19932;-53
2021/10/29 06:02:48;;;;;;;;;;;19.60;57.40;;;;;;5010904;28;19933;-52
2021/10/29 06:05:15;;;;;;;;;;;19.60;57.40;;;;;;4999829;28;19941;-53
2021/10/29 06:07:42;;;;;;;;;;;19.60;57.30;;;;;;5014195;28;19952;-51
2021/10/29 06:10:13;;;;;;;;;;;19.60;57.30;;;;;;5013435;28;19933;-53
2021/10/29 06:12:44;;;;;;;;;;;19.60;57.30;;;;;;4998491;28;19929;-52
2021/10/29 06:15:16;;;;;;;;;;;19.60;57.40;;;;;;4998079;28;20061;-54
2021/10/29 06:17:43;;;;;;;;;;;19.60;57.30;;;;;;5013918;28;19940;-54
2021/10/29 06:20:11;;;;;;;;;;;19.60;57.30;;;;;;5014198;28;19937;-55
2021/10/29 06:22:41;;;;;;;;;;;19.60;57.30;;;;;;4996775;28;20021;-54
2021/10/29 06:25:12;;;;;;;;;;;19.70;57.40;;;;;;5012904;28;19932;-54
2021/10/29 06:30:07;;;;;;;;;;;19.60;57.30;;;;;;4997122;28;19932;-53
2021/10/29 06:32:35;;;;;;;;;;;19.70;57.30;;;;;;5014011;28;20305;-52
2021/10/29 06:35:03;;;;;;;;;;;19.70;57.30;;;;;;5013921;28;19929;-55
2021/10/29 06:37:30;;;;;;;;;;;19.70;57.30;;;;;;5013525;28;19933;-52
2021/10/29 06:39:57;;;;;;;;;;;19.70;57.30;;;;;;5013660;28;19926;-53
2021/10/29 06:42:30;;;;;;;;;;;19.70;57.30;;;;;;5013231;28;19933;-50
2021/10/29 06:47:51;;;;;;;;;;;19.70;57.30;;;;;;5012916;28;19929;-54
2021/10/29 07:01:38;;;;;;;;;;;19.70;57.20;;;;;;4997722;28;19936;-50
2021/10/29 07:42:23;;;;;;;;;;;19.80;56.80;;;;;;4995557;28;20399;-50
2021/10/29 07:44:50;;;;;;;;;;;19.80;56.80;;;;;;4995576;28;19926;-52
2021/10/29 07:47:17;;;;;;;;;;;19.90;56.80;;;;;;5013193;28;19957;-51
2021/10/29 07:49:44;;;;;;;;;;;19.80;56.70;;;;;;4995415;28;19972;-50
2021/10/29 07:52:12;;;;;;;;;;;19.90;56.80;;;;;;4996196;28;19929;-48
2021/10/29 07:54:44;;;;;;;;;;;19.90;56.70;;;;;;5012173;28;19932;-52
2021/10/29 07:57:18;;;;;;;;;;;19.90;56.80;;;;;;4997244;28;20378;-48
2021/10/29 07:59:52;;;;;;;;;;;19.90;56.70;;;;;;4996300;28;19926;-48
2021/10/29 08:02:19;;;;;;;;;;;19.90;56.70;;;;;;5011675;28;19932;-49
2021/10/29 08:04:46;;;;;;;;;;;19.90;56.60;;;;;;5012227;28;19936;-51
2021/10/29 08:07:14;;;;;;;;;;;19.90;56.60;;;;;;5012295;28;20389;-50
2021/10/29 08:09:42;;;;;;;;;;;20.00;56.60;;;;;;5012241;28;19929;-50
2021/10/29 08:12:09;;;;;;;;;;;20.00;56.60;;;;;;5012553;28;19932;-52
2021/10/29 08:14:37;;;;;;;;;;;19.90;56.50;;;;;;5012571;28;20293;-54
2021/10/29 08:17:04;;;;;;;;;;;20.00;56.50;;;;;;5011991;28;19926;-52
2021/10/29 08:19:32;;;;;;;;;;;20.00;56.40;;;;;;5002925;28;19929;-50
2021/10/29 08:22:00;;;;;;;;;;;20.00;56.40;;;;;;5004620;28;19925;-52
2021/10/29 08:24:27;;;;;;;;;;;20.00;56.40;;;;;;5012100;28;19925;-52
2021/10/29 08:26:55;;;;;;;;;;;20.00;56.40;;;;;;5011861;28;19925;-52
2021/10/29 08:29:23;;;;;;;;;;;20.00;56.30;;;;;;5006207;28;20036;-51
2021/10/29 08:31:51;;;;;;;;;;;20.10;56.40;;;;;;5001222;28;19933;-47
2021/10/29 08:34:20;;;;;;;;;;;20.10;56.40;;;;;;5008673;28;19926;-50
2021/10/29 08:36:47;;;;;;;;;;;20.10;56.40;;;;;;4996254;28;19926;-51
2021/10/29 08:39:15;;;;;;;;;;;20.00;56.20;;;;;;4995880;28;20653;-49
2021/10/29 08:41:43;;;;;;;;;;;20.10;56.40;;;;;;4997621;28;19933;-52
2021/10/29 08:44:11;;;;;;;;;;;20.10;56.30;;;;;;5010922;28;19926;-54
2021/10/29 08:46:38;;;;;;;;;;;20.10;56.30;;;;;;5012049;28;19926;-53
2021/10/29 08:49:06;;;;;;;;;;;20.10;56.40;;;;;;4995300;28;19949;-50
2021/10/29 08:51:33;;;;;;;;;;;20.00;56.30;;;;;;4994651;28;19925;-50
2021/10/29 08:54:02;;;;;;;;;;;20.00;56.30;;;;;;4994900;28;19933;-52
2021/10/29 08:56:29;;;;;;;;;;;20.00;56.30;;;;;;4993634;28;19972;-52
2021/10/29 08:59:23;;;;;;;;;;;20.00;56.30;;;;;;4995357;28;19942;-51
2021/10/29 09:02:06;;;;;;;;;;;20.00;56.30;;;;;;5012054;28;19925;-54
2021/10/29 09:04:45;;;;;;;;;;;20.00;56.30;;;;;;4995687;28;20392;-53
2021/10/29 09:32:00;;;;;;;;;;;20.00;56.30;;;;;;5015505;28;19933;-55
2021/10/29 09:34:27;;;;;;;;;;;20.00;56.90;;;;;;5001575;28;19926;-55
2021/10/29 09:36:55;;;;;;;;;;;20.00;56.30;;;;;;5011262;28;19925;-53
2021/10/29 09:39:27;;;;;;;;;;;20.00;56.30;;;;;;5014070;28;19933;-53
2021/10/29 09:42:04;;;;;;;;;;;20.00;56.30;;;;;;5003645;28;19949;-52
2021/10/29 09:44:38;;;;;;;;;;;20.00;56.20;;;;;;5009317;28;20024;-53
2021/10/29 09:47:05;;;;;;;;;;;20.00;56.20;;;;;;5014500;28;19925;-51
2021/10/29 09:49:36;;;;;;;;;;;20.00;56.20;;;;;;5004199;28;19929;-53
2021/10/29 09:54:48;;;;;;;;;;;20.00;56.20;;;;;;4998293;28;19933;-48
2021/10/29 09:57:19;;;;;;;;;;;20.00;56.20;;;;;;4998317;28;19969;-52
2021/10/29 09:59:48;;;;;;;;;;;20.00;56.20;;;;;;5009155;28;19932;-52
2021/10/29 10:02:18;;;;;;;;;;;20.00;56.20;;;;;;5004712;28;19933;-52
2021/10/29 10:04:49;;;;;;;;;;;20.00;56.20;;;;;;4997045;28;19972;-54
2021/10/29 10:07:27;;;;;;;;;;;20.00;56.20;;;;;;4998224;28;19977;-54
2021/10/29 10:09:59;;;;;;;;;;;20.00;56.10;;;;;;4998318;28;20385;-52
2021/10/29 10:12:30;;;;;;;;;;;20.00;56.10;;;;;;5007429;28;19932;-50
2021/10/29 10:14:59;;;;;;;;;;;20.00;56.20;;;;;;5014179;28;19952;-54
2021/10/29 10:17:28;;;;;;;;;;;20.00;56.10;;;;;;5005540;28;19961;-54
2021/10/29 10:19:56;;;;;;;;;;;20.00;56.10;;;;;;5009597;28;19925;-53
2021/10/29 10:22:26;;;;;;;;;;;20.00;56.10;;;;;;5007305;28;19926;-50
2021/10/29 10:24:59;;;;;;;;;;;20.00;56.10;;;;;;5002814;28;19933;-53
2021/10/29 10:30:15;;;;;;;;;;;20.10;56.20;;;;;;5004250;28;20262;-55
2021/10/29 10:46:48;;;;;;;;;;;20.10;56.10;;;;;;4997228;28;19979;-55
2021/10/29 10:49:31;;;;;;;;;;;20.10;56.10;;;;;;4996688;28;20016;-52
2021/10/29 10:52:26;;;;;;;;;;;20.10;56.10;;;;;;5012562;28;19932;-53
2021/10/29 10:54:54;;;;;;;;;;;20.10;56.10;;;;;;4996102;28;19926;-54
2021/10/29 10:57:46;;;;;;;;;;;20.00;56.00;;;;;;4995891;28;19936;-52
2021/10/29 11:00:32;;;;;;;;;;;20.10;56.10;;;;;;4997335;28;19933;-51
2021/10/29 11:11:14;;;;;;;;;;;20.10;56.10;;;;;;5001653;28;19925;-51
2021/10/29 11:13:42;;;;;;;;;;;20.10;56.10;;;;;;5012002;28;19930;-54
2021/10/29 11:16:25;;;;;;;;;;;20.10;56.00;;;;;;5011859;28;19926;-53
2021/10/29 11:18:54;;;;;;;;;;;20.10;56.00;;;;;;5012208;28;19930;-52
2021/10/29 11:21:23;;;;;;;;;;;20.10;56.00;;;;;;5013227;28;19925;-48
2021/10/29 11:23:58;;;;;;;;;;;20.10;56.00;;;;;;5013576;28;19925;-49
2021/10/29 11:26:25;;;;;;;;;;;20.10;56.00;;;;;;5012659;28;19952;-48
2021/10/29 11:28:54;;;;;;;;;;;20.10;56.00;;;;;;5008295;28;19930;-49
2021/10/29 11:31:25;;;;;;;;;;;20.10;56.00;;;;;;4999533;28;20444;-50
2021/10/29 11:33:54;;;;;;;;;;;20.10;56.00;;;;;;5012652;28;19926;-52
2021/10/29 11:36:31;;;;;;;;;;;20.10;56.00;;;;;;5012861;28;19937;-49
2021/10/29 11:38:59;;;;;;;;;;;20.10;56.00;;;;;;5013131;28;19925;-50
2021/10/29 11:41:27;;;;;;;;;;;20.10;56.00;;;;;;5010214;28;20024;-50
2021/10/29 11:44:05;;;;;;;;;;;20.10;56.00;;;;;;4998523;28;19936;-50
2021/10/29 11:46:33;;;;;;;;;;;20.10;56.00;;;;;;5012553;28;19930;-49
2021/10/29 11:49:03;;;;;;;;;;;20.10;56.00;;;;;;5011273;28;19925;-50
2021/10/29 11:51:30;;;;;;;;;;;20.10;56.00;;;;;;4996244;28;19925;-50
2021/10/29 11:56:43;;;;;;;;;;;20.10;56.00;;;;;;4995805;28;19935;-49
2021/10/29 11:59:50;;;;;;;;;;;20.10;56.00;;;;;;5012372;28;19932;-51
2021/10/29 12:07:41;;;;;;;;;;;20.10;56.00;;;;;;5003065;28;19925;-51
2021/10/29 12:10:10;;;;;;;;;;;20.10;56.00;;;;;;5012365;28;19925;-50
2021/10/29 12:12:39;;;;;;;;;;;20.10;56.00;;;;;;5011089;28;20386;-48
2021/10/29 12:15:09;;;;;;;;;;;20.10;56.00;;;;;;5007855;28;19926;-52
2021/10/29 12:17:50;;;;;;;;;;;20.10;56.00;;;;;;4999306;28;19925;-48
2021/10/29 12:20:21;;;;;;;;;;;20.10;56.00;;;;;;5013155;28;19926;-54
2021/10/29 12:22:56;;;;;;;;;;;20.10;56.00;;;;;;5006778;28;20416;-48
2021/10/29 12:31:45;;;;;;;;;;;20.10;56.00;;;;;;5006432;28;19929;-49
2021/10/29 12:53:24;;;;;;;;;;;20.10;56.60;;;;;;4998707;28;19976;-49
2021/10/29 13:01:58;;;;;;;;;;;20.10;55.90;;;;;;5012415;28;19929;-52
2021/10/29 13:04:40;;;;;;;;;;;20.20;56.00;;;;;;4997468;28;19926;-52
2021/10/29 13:07:07;;;;;;;;;;;20.20;56.00;;;;;;5013704;28;19949;-52
2021/10/29 13:09:36;;;;;;;;;;;20.10;56.50;;;;;;5013296;28;20012;-54
2021/10/29 13:12:13;;;;;;;;;;;20.10;55.90;;;;;;5013053;28;19926;-55
2021/10/29 13:14:45;;;;;;;;;;;20.10;55.90;;;;;;5012219;28;20017;-51
2021/10/29 13:17:20;;;;;;;;;;;20.20;56.00;;;;;;5012823;28;19948;-53
2021/10/29 13:20:16;;;;;;;;;;;20.10;55.90;;;;;;5011947;28;19925;-51
2021/10/29 13:36:26;;;;;;;;;;;20.20;56.00;;;;;;5014253;28;19925;-50
2021/10/29 13:52:48;;;;;;;;;;;20.20;56.00;;;;;;5013543;28;19929;-49
2021/10/29 13:55:29;;;;;;;;;;;20.20;56.00;;;;;;5014560;28;19952;-53
2021/10/29 14:01:30;;;;;;;;;;;20.20;56.00;;;;;;5013446;28;19935;-51
2021/10/29 14:28:38;;;;;;;;;;;20.10;56.00;;;;;;5000415;28;19933;-52
2021/10/29 14:31:21;;;;;;;;;;;20.20;56.10;;;;;;5014374;28;19925;-50
2021/10/29 14:33:53;;;;;;;;;;;20.10;56.00;;;;;;5008165;28;19929;-54
2021/10/29 14:36:23;;;;;;;;;;;20.20;56.10;;;;;;5003498;28;20251;-54
2021/10/29 14:39:09;;;;;;;;;;;20.10;56.00;;;;;;5013806;28;20288;-54
2021/10/29 14:41:43;;;;;;;;;;;20.20;56.10;;;;;;5014025;28;19932;-50
2021/10/29 14:44:17;;;;;;;;;;;20.10;56.00;;;;;;5012658;28;19926;-54
2021/10/29 14:47:34;;;;;;;;;;;20.10;56.00;;;;;;5012739;28;19926;-50
2021/10/29 15:24:57;;;;;;;;;;;20.10;56.20;;;;;;4951447;28;19927;-50
2021/10/29 15:27:33;;;;;;;;;;;20.10;56.20;;;;;;4952256;28;19974;-49
2021/10/29 15:43:54;;;;;;;;;;;20.00;56.20;;;;;;4957223;28;19970;-49
2021/10/29 15:46:31;;;;;;;;;;;20.00;56.30;;;;;;4996927;28;19925;-47
2021/10/29 15:49:06;;;;;;;;;;;20.00;56.30;;;;;;4996487;28;19981;-49
2021/10/29 15:51:35;;;;;;;;;;;20.10;56.40;;;;;;5008313;28;20012;-51
2021/10/29 15:54:08;;;;;;;;;;;20.00;56.30;;;;;;5012620;28;20004;-50
2021/10/29 15:56:57;;;;;;;;;;;20.10;56.40;;;;;;5010098;28;19926;-48
2021/10/29 16:18:14;;;;;;;;;;;20.00;56.50;;;;;;5005614;28;20012;-49
2021/10/29 16:20:42;;;;;;;;;;;20.00;56.50;;;;;;4996353;28;19980;-48
2021/10/29 16:23:10;;;;;;;;;;;20.00;56.50;;;;;;4999114;28;19965;-50
2021/10/29 16:25:48;;;;;;;;;;;20.00;56.50;;;;;;4997460;28;19933;-52
2021/10/29 16:28:18;;;;;;;;;;;20.00;56.60;;;;;;5015766;28;20016;-50
2021/10/29 16:30:45;;;;;;;;;;;20.00;56.60;;;;;;5015398;28;20425;-57
2021/10/29 16:35:45;;;;;;;;;;;20.00;56.60;;;;;;5015422;28;20421;-53
2021/10/29 16:38:12;;;;;;;;;;;20.00;56.70;;;;;;5000743;28;20262;-50
2021/10/29 16:40:39;;;;;;;;;;;20.00;56.70;;;;;;5014319;28;19976;-52
2021/10/29 16:43:06;;;;;;;;;;;20.00;56.70;;;;;;5002685;28;20633;-53
2021/10/29 16:45:34;;;;;;;;;;;20.00;56.70;;;;;;5012545;28;19936;-49
2021/10/29 16:48:02;;;;;;;;;;;20.00;56.70;;;;;;5004139;28;20001;-52
2021/10/29 16:50:29;;;;;;;;;;;19.90;56.70;;;;;;5009652;28;20385;-52
2021/10/29 16:52:55;;;;;;;;;;;19.90;56.70;;;;;;5015618;28;19973;-52
2021/10/29 16:55:22;;;;;;;;;;;19.90;56.70;;;;;;5014580;28;19926;-53
2021/10/29 16:57:49;;;;;;;;;;;19.90;56.70;;;;;;5015559;28;19976;-53
2021/10/29 17:00:16;;;;;;;;;;;19.90;56.70;;;;;;5011066;28;20498;-48
2021/10/29 17:02:44;;;;;;;;;;;19.90;56.70;;;;;;4999463;28;19953;-54
2021/10/29 17:05:12;;;;;;;;;;;19.90;56.70;;;;;;5004954;28;19972;-51
2021/10/29 17:07:40;;;;;;;;;;;19.90;56.70;;;;;;5015606;28;19929;-53
2021/10/29 17:10:08;;;;;;;;;;;19.90;56.80;;;;;;5012070;28;20389;-53
2021/10/29 17:12:37;;;;;;;;;;;19.90;56.80;;;;;;5002423;28;20295;-51
2021/10/29 17:15:06;;;;;;;;;;;19.90;56.80;;;;;;5015494;28;20017;-50
2021/10/29 17:17:33;;;;;;;;;;;19.90;56.80;;;;;;5008525;28;19948;-52
2021/10/29 17:20:00;;;;;;;;;;;19.90;57.40;;;;;;5022349;28;19925;-48
2021/10/29 17:22:27;;;;;;;;;;;19.90;56.80;;;;;;5028357;28;19925;-51
2021/10/29 17:24:55;;;;;;;;;;;19.90;56.90;;;;;;5015532;28;20381;-53
2021/10/29 17:27:22;;;;;;;;;;;19.90;56.90;;;;;;4997338;28;19929;-51
2021/10/29 17:29:49;;;;;;;;;;;19.90;56.90;;;;;;4997277;28;19926;-48
2021/10/29 17:32:16;;;;;;;;;;;19.90;56.90;;;;;;4996969;28;19929;-48
2021/10/29 17:34:44;;;;;;;;;;;19.90;56.90;;;;;;4999007;28;20008;-51
2021/10/29 17:37:12;;;;;;;;;;;19.90;56.90;;;;;;4999157;28;19980;-49
2021/10/29 17:39:39;;;;;;;;;;;19.90;57.00;;;;;;5013805;28;19925;-51
2021/10/29 17:42:07;;;;;;;;;;;19.90;57.00;;;;;;5011941;28;20405;-50
2021/10/29 17:44:35;;;;;;;;;;;19.90;57.00;;;;;;5014027;28;20301;-52
2021/10/29 17:47:04;;;;;;;;;;;19.90;57.00;;;;;;5003562;28;19961;-53
2021/10/29 17:49:31;;;;;;;;;;;19.90;57.00;;;;;;5009645;28;19926;-55
2021/10/29 17:52:02;;;;;;;;;;;19.90;57.10;;;;;;5005042;28;19950;-51
2021/10/29 17:54:33;;;;;;;;;;;19.90;57.00;;;;;;5007794;28;19925;-52
2021/10/29 17:57:06;;;;;;;;;;;19.90;57.10;;;;;;5003100;28;19926;-52
2021/10/29 17:59:35;;;;;;;;;;;19.90;57.10;;;;;;5007869;28;19972;-50
2021/10/29 18:02:03;;;;;;;;;;;19.90;57.10;;;;;;5013783;28;19929;-50
2021/10/29 18:04:30;;;;;;;;;;;19.90;57.10;;;;;;5014768;28;19925;-53
2021/10/29 18:06:59;;;;;;;;;;;19.90;57.10;;;;;;5014680;28;19964;-49
2021/10/29 18:09:26;;;;;;;;;;;19.90;57.10;;;;;;5008818;28;19926;-51
2021/10/29 18:11:53;;;;;;;;;;;19.90;57.10;;;;;;5002213;28;19975;-52
2021/10/29 18:14:23;;;;;;;;;;;19.80;57.10;;;;;;5014342;28;19976;-47
2021/10/29 18:16:51;;;;;;;;;;;19.80;57.10;;;;;;5010659;28;20325;-47
2021/10/29 18:19:18;;;;;;;;;;;19.80;57.10;;;;;;5000757;28;19925;-48
2021/10/29 18:21:46;;;;;;;;;;;19.80;57.10;;;;;;5012356;28;19933;-48
2021/10/29 18:24:13;;;;;;;;;;;19.80;57.10;;;;;;4998011;28;19925;-49
2021/10/29 18:26:41;;;;;;;;;;;19.80;57.10;;;;;;4996937;28;19969;-49
2021/10/29 18:29:10;;;;;;;;;;;19.80;57.10;;;;;;4996938;28;20021;-49
2021/10/29 18:31:37;;;;;;;;;;;19.80;57.10;;;;;;4996736;28;19933;-49
2021/10/29 18:34:05;;;;;;;;;;;19.80;57.20;;;;;;5014089;28;19973;-50
2021/10/29 18:36:32;;;;;;;;;;;19.80;57.20;;;;;;4996026;28;19996;-49
2021/10/29 18:39:00;;;;;;;;;;;19.80;57.20;;;;;;4997455;28;19925;-49
2021/10/29 18:41:31;;;;;;;;;;;19.80;57.20;;;;;;5013427;28;19926;-50
2021/10/29 18:44:02;;;;;;;;;;;19.80;57.20;;;;;;5014080;28;19969;-52
2021/10/29 18:46:29;;;;;;;;;;;19.80;57.30;;;;;;5014082;28;19972;-49
2021/10/29 18:48:56;;;;;;;;;;;19.80;57.30;;;;;;5013503;28;19925;-49
2021/10/29 18:51:25;;;;;;;;;;;19.80;57.30;;;;;;5013827;28;19953;-48
2021/10/29 18:53:52;;;;;;;;;;;19.80;57.30;;;;;;5001293;28;19925;-51
2021/10/29 18:56:21;;;;;;;;;;;19.80;57.30;;;;;;5008476;28;19979;-51
2021/10/29 18:58:48;;;;;;;;;;;19.80;57.30;;;;;;5013823;28;19932;-53
2021/10/29 19:01:15;;;;;;;;;;;19.80;57.30;;;;;;5013341;28;19925;-50
2021/10/29 19:03:43;;;;;;;;;;;19.80;57.30;;;;;;5013596;28;19926;-49
2021/10/29 19:06:15;;;;;;;;;;;19.80;57.30;;;;;;5011455;28;20321;-49
2021/10/29 19:08:43;;;;;;;;;;;19.80;57.30;;;;;;5005953;28;19965;-51
2021/10/29 19:11:10;;;;;;;;;;;19.80;57.40;;;;;;4997522;28;19964;-48